EPGD Airport Information

Runway Information
Runway 11 Length 9186 ft width 147 ft
Elevation 450 ft Threshold ft Heading 113
Runway 29 Length 9186 ft Width 147 ft
Elevation 489 ft Threshold ft Heading 293
Airport Frequencies
Type APP Name GDANSK APP Frequency 127.275 MHZ
Type ATIS Name ATIS Frequency 129.625 MHZ
Type TWR Name GDANSK TWR Frequency 118.1 MHZ
Airport Navaids
Type NDB Name Gdansk Frequency 322 KHZ
Type VOR-DME Name Kartuzy Frequency 113200 KHZ
Type NDB Name Gdansk Frequency 383 KHZ
Airport Weather Information & NOTAM
ADDS - METARS form results

(2023 UTC 10 August 2022)
Data provider http://aviationweather.gov/metar/data/
 
METAR text: EPGD 102000Z VRB01KT CAVOK 15/13 Q1027
Conditions at: EPGD (GDANSK/REBIECHOW, PL) observed 2000 UTC 10 August 2022
Temperature: 15.0°C (59°F)
Dewpoint: 13.0°C (55°F) [RH = 88%]
Pressure (altimeter): 30.32 inches Hg (1027.0 mb)
Winds: variable direction winds at 1 MPH (1 knots; 0.5 m/s)
Visibility: 6 or more miles (10+ km)
Ceiling: ceiling and visibility are OK
Clouds: unknown
Weather: no significant weather observed at this time

METAR text: EPGD 101930Z VRB02KT CAVOK 17/13 Q1027
Conditions at: EPGD (GDANSK/REBIECHOW, PL) observed 1930 UTC 10 August 2022
Temperature: 17.0°C (63°F)
Dewpoint: 13.0°C (55°F) [RH = 77%]
Pressure (altimeter): 30.32 inches Hg (1027.0 mb)
Winds: variable direction winds at 2 MPH (2 knots; 1.0 m/s)
Visibility: 6 or more miles (10+ km)
Ceiling: ceiling and visibility are OK
Clouds: unknown
Weather: no significant weather observed at this time

Forecast for: EPGD (GDANSK/REBIECHOW, PL)
Text: TAF EPGD 101730Z 1018/1118 05010KT CAVOK
Forecast period: 1800 UTC 10 August 2022 to 1800 UTC 11 August 2022
Forecast type: FROM: standard forecast or significant change
Winds: from the NE (50 degrees) at 12 MPH (10 knots; 5.1 m/s)
Visibility: 6 or more miles (10+ km)
Ceiling: unknown
Clouds: missing
Weather: NSW  (no significant weather)
Text: BECMG 1018/1021 VRB02KT
Forecast period: 1800 UTC 10 August 2022 to 1800 UTC 11 August 2022
Forecast type: BECOMING: Conditions expected to become as follows by 2100 UTC 10 August 2022
Winds: variable direction winds at 2 MPH (2 knots; 1.0 m/s)
Visibility: 6 or more miles (10+ km)
Ceiling: unknown
Clouds: missing
Weather: NSW  (no significant weather)
Text: TEMPO 1100/1105 3000 BR
Forecast period: 0000 to 0500 UTC 11 August 2022
Forecast type: TEMPORARY: The following changes expected for less than half the time period
Visibility: 1.86 miles (2.99 km)
Ceiling: unknown
Clouds: missing
Weather: BR  (mist)
Text: PROB40
Forecast period: 0100 to 0500 UTC 11 August 2022
Forecast type: TEMPORARY: The following changes expected for less than half the time period
Visibility: 0.37 miles (0.60 km)
Ceiling: unknown
Clouds: missing
Weather: FG  (fog)